Time;durP1;ratioP1;P1;durP2;ratioP2;P2;SDS_P1;SDS_P2;PMS_P1;PMS_P2;Temp;Humidity;BMP_temperature;BMP_pressure;BME280_temperature;BME280_humidity;BME280_pressure;Samples;Min_cycle;Max_cycle;Signal;HPM_P1;HPM_P2
2024/04/21 00:00:16;;;;;;;;;;;;;;;20.50;29.68;102222.59;4571960;26;19935;-72
2024/04/21 00:02:18;;;;;;;;;;;;;;;20.50;29.92;102215.47;4571496;25;19935;-72
2024/04/21 00:04:21;;;;;;;;;;;;;;;20.53;29.94;102220.63;4572159;25;20401;-72
2024/04/21 00:06:23;;;;;;;;;;;;;;;20.53;30.04;102214.44;4572551;25;19933;-72
2024/04/21 00:08:25;;;;;;;;;;;;;;;20.53;29.88;102209.09;4570203;26;20031;-72
2024/04/21 00:10:26;;;;;;;;;;;;;;;20.54;29.55;102214.34;4570648;25;20411;-72
2024/04/21 00:12:32;;;;;;;;;;;;;;;20.56;29.47;102206.22;4572208;25;19931;-72
2024/04/21 00:14:34;;;;;;;;;;;;;;;20.56;29.40;102203.56;4572403;25;19939;-72
2024/04/21 00:16:36;;;;;;;;;;;;;;;20.52;30.24;102208.22;4572569;25;19931;-73
2024/04/21 00:18:38;;;;;;;;;;;;;;;20.51;30.31;102201.16;4569895;25;20336;-73
2024/04/21 00:20:40;;;;;;;;;;;;;;;20.51;29.70;102193.13;4572290;25;19936;-72
2024/04/21 00:22:41;;;;;;;;;;;;;;;20.48;30.34;102195.97;4572293;26;20373;-73
2024/04/21 00:24:45;;;;;;;;;;;;;;;20.50;30.19;102194.09;4572115;26;20261;-72
2024/04/21 00:26:47;;;;;;;;;;;;;;;20.52;29.67;102194.88;4572487;25;20285;-73
2024/04/21 00:28:49;;;;;;;;;;;;;;;20.52;29.56;102200.22;4572103;26;19927;-72
2024/04/21 00:30:51;;;;;;;;;;;;;;;20.54;30.16;102194.78;4572221;25;20350;-72
2024/04/21 00:32:53;;;;;;;;;;;;;;;20.54;29.62;102192.97;4572129;26;20481;-72
2024/04/21 00:34:55;;;;;;;;;;;;;;;20.58;30.15;102193.66;4572142;25;19935;-73
2024/04/21 00:36:57;;;;;;;;;;;;;;;20.60;30.23;102189.09;4570820;25;19931;-72
2024/04/21 00:38:59;;;;;;;;;;;;;;;20.56;29.98;102190.19;4571870;26;20290;-73
2024/04/21 00:41:01;;;;;;;;;;;;;;;20.51;30.19;102187.78;4571916;25;19939;-72
2024/04/21 00:43:04;;;;;;;;;;;;;;;20.51;30.32;102187.78;4572288;26;19934;-73
2024/04/21 00:45:06;;;;;;;;;;;;;;;20.50;29.92;102182.50;4571832;25;19943;-73
2024/04/21 00:47:10;;;;;;;;;;;;;;;20.49;29.54;102180.81;4571734;26;19938;-72
2024/04/21 00:49:13;;;;;;;;;;;;;;;20.49;29.54;102180.81;4569846;26;19972;-72
2024/04/21 00:51:16;;;;;;;;;;;;;;;20.51;30.18;102176.22;4572002;25;20000;-72
2024/04/21 00:53:19;;;;;;;;;;;;;;;20.50;29.56;102164.69;4572156;25;19935;-72
2024/04/21 00:55:20;;;;;;;;;;;;;;;20.50;29.76;102164.69;4571729;25;20295;-72
2024/04/21 00:57:22;;;;;;;;;;;;;;;20.52;29.86;102161.91;4571811;26;19931;-72
2024/04/21 00:59:25;;;;;;;;;;;;;;;20.50;29.75;102156.66;4571579;26;19928;-72
2024/04/21 01:01:27;;;;;;;;;;;;;;;20.51;29.44;102155.72;4571059;25;19935;-73
2024/04/21 01:03:29;;;;;;;;;;;;;;;20.50;30.33;102153.13;4571711;26;19928;-72
2024/04/21 01:05:31;;;;;;;;;;;;;;;20.47;29.76;102159.50;4571463;25;19938;-72
2024/04/21 01:07:33;;;;;;;;;;;;;;;20.47;30.45;102156.81;4571605;26;20345;-73
2024/04/21 01:09:34;;;;;;;;;;;;;;;20.46;30.00;102148.91;4571339;25;19931;-72
2024/04/21 01:11:45;;;;;;;;;;;;;;;20.44;30.07;102149.00;4571566;25;19936;-72
2024/04/21 01:13:47;;;;;;;;;;;;;;;20.48;29.64;102145.19;4571464;25;19931;-72
2024/04/21 01:15:52;;;;;;;;;;;;;;;20.48;30.28;102145.19;4570810;25;20297;-72
2024/04/21 01:17:54;;;;;;;;;;;;;;;20.47;29.62;102140.78;4571474;26;19936;-72
2024/04/21 01:19:55;;;;;;;;;;;;;;;20.47;30.03;102139.94;4571264;26;19943;-72
2024/04/21 01:21:57;;;;;;;;;;;;;;;20.50;29.52;102140.63;4571420;25;19939;-72
2024/04/21 01:23:59;;;;;;;;;;;;;;;20.50;30.42;102143.31;4571407;25;20329;-73
2024/04/21 01:26:01;;;;;;;;;;;;;;;20.48;29.68;102141.66;4571184;26;19943;-72
2024/04/21 01:28:03;;;;;;;;;;;;;;;20.47;29.90;102135.44;4570021;26;20309;-72
2024/04/21 01:30:05;;;;;;;;;;;;;;;20.46;30.32;102135.53;4570636;26;19935;-73
2024/04/21 01:32:20;;;;;;;;;;;;;;;20.42;29.64;102130.34;4571255;25;19935;-72
2024/04/21 01:34:22;;;;;;;;;;;;;;;20.43;30.27;102139.25;4571474;25;19939;-73
2024/04/21 01:36:24;;;;;;;;;;;;;;;20.43;29.71;102128.56;4571152;25;19938;-72
2024/04/21 01:38:25;;;;;;;;;;;;;;;20.46;29.62;102136.38;4571332;25;19935;-72
2024/04/21 01:40:27;;;;;;;;;;;;;;;20.46;30.29;102136.38;4570867;25;19931;-72
2024/04/21 01:42:32;;;;;;;;;;;;;;;20.46;29.67;102136.38;4570996;26;19928;-72
2024/04/21 01:44:35;;;;;;;;;;;;;;;20.49;29.73;102138.06;4570756;25;20274;-72
2024/04/21 01:46:38;;;;;;;;;;;;;;;20.47;30.06;102134.59;4570732;25;20358;-72
2024/04/21 01:48:40;;;;;;;;;;;;;;;20.47;30.52;102134.59;4573647;25;20296;-72
2024/04/21 01:50:42;;;;;;;;;;;;;;;20.45;30.51;102125.78;4573964;25;19931;-72
2024/04/21 01:52:44;;;;;;;;;;;;;;;20.42;29.85;102125.00;4574106;26;19944;-72
2024/04/21 01:54:46;;;;;;;;;;;;;;;20.41;29.93;102123.31;4574106;26;19939;-72
2024/04/21 01:56:47;;;;;;;;;;;;;;;20.40;29.82;102121.56;4573785;26;20028;-73
2024/04/21 01:58:49;;;;;;;;;;;;;;;20.38;30.46;102111.91;4573554;25;20281;-72
2024/04/21 02:00:51;;;;;;;;;;;;;;;20.39;30.50;102114.50;4574239;25;19938;-72
2024/04/21 02:02:53;;;;;;;;;;;;;;;20.41;29.82;102114.41;4573709;26;19942;-72
2024/04/21 02:04:55;;;;;;;;;;;;;;;20.43;29.75;102109.84;4573913;25;20085;-72
2024/04/21 02:06:57;;;;;;;;;;;;;;;20.47;30.00;102102.53;4573564;26;19935;-73
2024/04/21 02:08:59;;;;;;;;;;;;;;;20.47;29.69;102102.53;4573642;25;19928;-72
2024/04/21 02:11:01;;;;;;;;;;;;;;;20.46;30.27;102103.47;4573784;25;19928;-72
2024/04/21 02:13:03;;;;;;;;;;;;;;;20.47;30.47;102105.19;4573370;26;19931;-73
2024/04/21 02:15:05;;;;;;;;;;;;;;;20.46;29.75;102106.13;4573784;25;19980;-72
2024/04/21 02:17:06;;;;;;;;;;;;;;;20.41;29.88;102107.25;4571780;26;19943;-73
2024/04/21 02:19:08;;;;;;;;;;;;;;;20.39;30.23;102100.25;4573593;25;19928;-72
2024/04/21 02:21:11;;;;;;;;;;;;;;;20.39;30.46;102100.25;4573605;25;20002;-71
2024/04/21 02:23:12;;;;;;;;;;;;;;;20.38;30.53;102103.91;4576528;25;19942;-71
2024/04/21 02:25:16;;;;;;;;;;;;;;;20.36;30.60;102098.63;4573546;25;19931;-72
2024/04/21 02:27:18;;;;;;;;;;;;;;;20.36;30.22;102101.28;4573439;25;20296;-71
2024/04/21 02:29:20;;;;;;;;;;;;;;;20.37;29.77;102097.69;4572909;26;19932;-72
2024/04/21 02:31:22;;;;;;;;;;;;;;;20.39;29.61;102094.91;4573410;25;19942;-72
2024/04/21 02:33:24;;;;;;;;;;;;;;;20.38;29.78;102091.38;4573064;26;20010;-71
2024/04/21 02:35:27;;;;;;;;;;;;;;;20.41;30.17;102090.34;4573098;25;19934;-71
2024/04/21 02:37:28;;;;;;;;;;;;;;;20.39;29.86;102095.78;4571654;26;20346;-71
2024/04/21 02:39:30;;;;;;;;;;;;;;;20.38;30.36;102096.72;4573400;25;19984;-71
2024/04/21 02:41:32;;;;;;;;;;;;;;;20.38;29.80;102095.88;4573525;26;20024;-71
2024/04/21 02:43:34;;;;;;;;;;;;;;;20.37;29.73;102102.16;4572700;25;20291;-71
2024/04/21 02:45:36;;;;;;;;;;;;;;;20.34;29.61;102105.88;4573476;26;19942;-71
2024/04/21 02:47:37;;;;;;;;;;;;;;;20.32;30.00;102107.75;4573134;25;19935;-72
2024/04/21 02:49:39;;;;;;;;;;;;;;;20.33;30.21;102105.94;4573182;25;19934;-72
2024/04/21 02:51:41;;;;;;;;;;;;;;;20.34;30.02;102105.00;4573327;26;19935;-72
2024/04/21 02:53:43;;;;;;;;;;;;;;;20.34;30.27;102108.53;4572995;26;19939;-72
2024/04/21 02:55:45;;;;;;;;;;;;;;;20.36;29.76;102103.13;4573236;25;20377;-72
2024/04/21 02:57:47;;;;;;;;;;;;;;;20.34;29.73;102097.84;4572688;25;20005;-73
2024/04/21 02:59:48;;;;;;;;;;;;;;;20.35;29.78;102096.03;4572287;26;19928;-72
2024/04/21 03:01:50;;;;;;;;;;;;;;;20.37;30.04;102091.47;4572970;26;19938;-71
2024/04/21 03:03:52;;;;;;;;;;;;;;;20.36;30.38;102085.25;4572875;26;19939;-72
2024/04/21 03:05:55;;;;;;;;;;;;;;;20.34;29.66;102089.84;4573130;26;19935;-72
2024/04/21 03:07:57;;;;;;;;;;;;;;;20.31;29.95;102089.16;4573201;25;20275;-71
2024/04/21 03:09:59;;;;;;;;;;;;;;;20.31;30.29;102089.16;4572955;25;19999;-73
2024/04/21 03:12:01;;;;;;;;;;;;;;;20.30;30.07;102082.06;4572752;25;20443;-71
2024/04/21 03:14:03;;;;;;;;;;;;;;;20.28;29.62;102079.50;4572805;26;20441;-72
2024/04/21 03:16:05;;;;;;;;;;;;;;;20.29;29.84;102077.69;4552892;26;19935;-72
2024/04/21 03:18:07;;;;;;;;;;;;;;;20.30;29.99;102079.41;4572963;25;19936;-71
2024/04/21 03:20:08;;;;;;;;;;;;;;;20.30;30.43;102079.41;4572845;26;19938;-71
2024/04/21 03:22:10;;;;;;;;;;;;;;;20.33;30.04;102084.56;4572795;25;19935;-71
2024/04/21 03:24:12;;;;;;;;;;;;;;;20.35;29.55;102080.00;4572654;26;19934;-73
2024/04/21 03:26:14;;;;;;;;;;;;;;;20.33;30.09;102081.88;4572166;26;19931;-73
2024/04/21 03:28:16;;;;;;;;;;;;;;;20.32;30.02;102086.38;4572989;26;19935;-73
2024/04/21 03:30:18;;;;;;;;;;;;;;;20.32;29.68;102082.88;4572794;25;19938;-72
2024/04/21 03:32:20;;;;;;;;;;;;;;;20.29;30.41;102081.19;4572862;26;20372;-72
2024/04/21 03:34:21;;;;;;;;;;;;;;;20.30;30.37;102082.06;4572633;25;19990;-72
2024/04/21 03:36:23;;;;;;;;;;;;;;;20.27;29.77;102077.78;4572488;25;19939;-72
2024/04/21 03:38:25;;;;;;;;;;;;;;;20.26;30.45;102076.88;4573024;25;19939;-72
2024/04/21 03:40:27;;;;;;;;;;;;;;;20.27;30.15;102073.28;4572197;25;19934;-72
2024/04/21 03:42:29;;;;;;;;;;;;;;;20.29;29.91;102072.34;4572537;25;19999;-71
2024/04/21 03:44:31;;;;;;;;;;;;;;;20.31;29.78;102075.78;4572590;25;19931;-71
2024/04/21 03:46:36;;;;;;;;;;;;;;;20.31;29.58;102076.66;4572655;25;19935;-72
2024/04/21 03:48:38;;;;;;;;;;;;;;;20.33;29.73;102065.84;4572701;25;19932;-72
2024/04/21 03:50:41;;;;;;;;;;;;;;;20.32;29.60;102065.00;4572354;25;19935;-72
2024/04/21 03:52:43;;;;;;;;;;;;;;;20.31;30.24;102060.59;4572671;25;20341;-71
2024/04/21 03:54:50;;;;;;;;;;;;;;;20.27;29.63;102065.25;4572060;25;19939;-72
2024/04/21 03:56:52;;;;;;;;;;;;;;;20.27;29.71;102061.75;4570560;26;19942;-73
2024/04/21 03:58:54;;;;;;;;;;;;;;;20.26;30.47;102057.34;4572603;25;19942;-72
2024/04/21 04:00:59;;;;;;;;;;;;;;;20.25;29.75;102061.81;4570279;26;19951;-72
2024/04/21 04:03:02;;;;;;;;;;;;;;;20.26;30.16;102065.34;4572517;26;20289;-72
2024/04/21 04:05:04;;;;;;;;;;;;;;;20.27;30.38;102059.91;4572585;26;19943;-72
2024/04/21 04:07:06;;;;;;;;;;;;;;;20.29;30.37;102059.81;4572217;26;20301;-72
2024/04/21 04:09:09;;;;;;;;;;;;;;;20.31;30.43;102054.41;4541457;26;19942;-71
2024/04/21 04:11:14;;;;;;;;;;;;;;;20.32;29.47;102057.00;4554772;26;19938;-70
2024/04/21 04:13:17;;;;;;;;;;;;;;;20.32;29.35;102059.66;4572427;26;19931;-70
2024/04/21 04:15:19;;;;;;;;;;;;;;;20.31;29.93;102046.41;4572380;26;19935;-70
2024/04/21 04:17:21;;;;;;;;;;;;;;;20.29;30.26;102042.94;4572173;25;19944;-72
2024/04/21 04:19:23;;;;;;;;;;;;;;;20.23;29.71;102045.03;4572512;25;19935;-71
2024/04/21 04:21:26;;;;;;;;;;;;;;;20.25;29.67;102050.28;4569742;25;19931;-71
2024/04/21 04:23:28;;;;;;;;;;;;;;;20.24;30.08;102040.53;4572173;25;20354;-72
2024/04/21 04:25:30;;;;;;;;;;;;;;;20.26;29.73;102036.81;4571812;26;19943;-71
2024/04/21 04:27:33;;;;;;;;;;;;;;;20.25;30.18;102042.25;4571741;26;20286;-72
2024/04/21 04:29:35;;;;;;;;;;;;;;;20.23;29.72;102034.34;4572059;25;20274;-72
2024/04/21 04:31:37;;;;;;;;;;;;;;;20.25;30.03;102047.59;4571798;25;20289;-72
2024/04/21 04:33:39;;;;;;;;;;;;;;;20.25;29.48;102048.44;4572100;25;19927;-71
2024/04/21 04:35:42;;;;;;;;;;;;;;;20.28;29.53;102050.13;4572143;25;20333;-72
2024/04/21 04:37:44;;;;;;;;;;;;;;;20.30;30.22;102047.34;4571711;25;19935;-72
2024/04/21 04:39:47;;;;;;;;;;;;;;;20.27;30.34;102046.56;4571640;26;20358;-73
2024/04/21 04:41:49;;;;;;;;;;;;;;;20.25;30.38;102045.78;4571601;25;20000;-72
2024/04/21 04:43:51;;;;;;;;;;;;;;;20.22;29.66;102045.09;4571754;25;20460;-71
2024/04/21 04:45:53;;;;;;;;;;;;;;;20.21;29.58;102049.56;4572176;25;19932;-71
2024/04/21 04:47:55;;;;;;;;;;;;;;;20.19;30.21;102042.59;4571523;26;19938;-72
2024/04/21 04:49:57;;;;;;;;;;;;;;;20.20;30.40;102047.00;4571996;26;19931;-71
2024/04/21 04:51:59;;;;;;;;;;;;;;;20.18;30.07;102048.88;4571664;26;20375;-71
2024/04/21 04:54:02;;;;;;;;;;;;;;;20.19;29.93;102043.44;4571311;26;19935;-71
2024/04/21 04:56:04;;;;;;;;;;;;;;;20.21;29.60;102046.06;4571903;26;20358;-70
2024/04/21 04:58:08;;;;;;;;;;;;;;;20.20;29.88;102044.31;4571307;25;19935;-72
2024/04/21 05:00:11;;;;;;;;;;;;;;;20.22;29.66;102045.97;4571774;25;19931;-72
2024/04/21 05:02:13;;;;;;;;;;;;;;;20.23;30.06;102046.81;4571488;26;19942;-71
2024/04/21 05:04:15;;;;;;;;;;;;;;;20.23;29.51;102044.13;4571832;26;20393;-73
2024/04/21 05:06:18;;;;;;;;;;;;;;;20.21;29.74;102046.06;4571960;26;19938;-72
2024/04/21 05:08:20;;;;;;;;;;;;;;;20.20;30.23;102052.34;4571026;26;19932;-72
2024/04/21 05:10:22;;;;;;;;;;;;;;;20.18;30.01;102046.22;4571477;25;19932;-72
2024/04/21 05:12:25;;;;;;;;;;;;;;;20.18;30.15;102039.03;4571743;26;19946;-72
2024/04/21 05:14:27;;;;;;;;;;;;;;;20.17;29.60;102037.34;4567949;25;19986;-71
2024/04/21 05:16:29;;;;;;;;;;;;;;;20.17;29.64;102041.81;4571757;25;19931;-71
2024/04/21 05:18:31;;;;;;;;;;;;;;;20.18;30.18;102040.88;4571272;25;19947;-71
2024/04/21 05:20:34;;;;;;;;;;;;;;;20.18;30.29;102041.72;4571535;26;20356;-72
2024/04/21 05:22:36;;;;;;;;;;;;;;;20.22;29.71;102047.75;4570592;25;20361;-72
2024/04/21 05:24:41;;;;;;;;;;;;;;;20.20;29.46;102045.16;4571229;26;20384;-72
2024/04/21 05:26:43;;;;;;;;;;;;;;;20.22;30.35;102042.41;4540985;26;20004;-72
2024/04/21 05:28:45;;;;;;;;;;;;;;;20.21;30.04;102046.91;4552660;26;19940;-72
2024/04/21 05:30:51;;;;;;;;;;;;;;;20.18;30.17;102041.72;4571564;25;19939;-71
2024/04/21 05:32:53;;;;;;;;;;;;;;;20.17;30.08;102042.69;4571615;25;19961;-72
2024/04/21 05:34:55;;;;;;;;;;;;;;;20.16;29.67;102051.66;4571135;25;19927;-71
2024/04/21 05:36:57;;;;;;;;;;;;;;;20.15;29.63;102046.41;4570881;25;19931;-72
2024/04/21 05:39:02;;;;;;;;;;;;;;;20.14;29.64;102050.84;4569371;26;19942;-73
2024/04/21 05:41:05;;;;;;;;;;;;;;;20.14;29.60;102050.00;4571374;26;19939;-73
2024/04/21 05:43:07;;;;;;;;;;;;;;;20.17;29.94;102055.16;4571469;25;19947;-72
2024/04/21 05:45:09;;;;;;;;;;;;;;;20.16;29.69;102048.09;4571159;25;20259;-73
2024/04/21 05:47:11;;;;;;;;;;;;;;;20.19;29.60;102048.78;4571118;25;19942;-73
2024/04/21 05:49:14;;;;;;;;;;;;;;;20.21;30.22;102062.94;4570866;25;19932;-72
2024/04/21 05:51:16;;;;;;;;;;;;;;;20.21;30.28;102052.25;4570667;25;20369;-72
2024/04/21 05:53:18;;;;;;;;;;;;;;;20.20;30.13;102055.00;4571261;25;20349;-72
2024/04/21 05:55:20;;;;;;;;;;;;;;;20.19;29.83;102054.13;4570738;26;19936;-72
2024/04/21 05:57:25;;;;;;;;;;;;;;;20.18;30.32;102060.41;4569180;26;19935;-72
2024/04/21 05:59:27;;;;;;;;;;;;;;;20.17;29.68;102063.19;4571049;25;19928;-72
2024/04/21 06:01:31;;;;;;;;;;;;;;;20.16;29.64;102056.97;4569026;26;19942;-73
2024/04/21 06:03:33;;;;;;;;;;;;;;;20.15;30.14;102055.25;4571023;25;19927;-73
2024/04/21 06:05:36;;;;;;;;;;;;;;;20.15;29.66;102054.41;4570095;25;19931;-73
2024/04/21 06:07:38;;;;;;;;;;;;;;;20.19;30.24;102051.47;4570727;25;20433;-73
2024/04/21 06:09:40;;;;;;;;;;;;;;;20.18;30.15;102052.41;4570423;25;19943;-72
2024/04/21 06:11:42;;;;;;;;;;;;;;;20.20;29.67;102057.69;4570742;25;19976;-71
2024/04/21 06:13:44;;;;;;;;;;;;;;;20.21;29.48;102060.25;4570566;26;19942;-72
2024/04/21 06:15:47;;;;;;;;;;;;;;;20.20;30.28;102055.00;4570239;26;19942;-72
2024/04/21 06:17:49;;;;;;;;;;;;;;;20.20;29.86;102058.53;4570637;25;20384;-74
2024/04/21 06:19:52;;;;;;;;;;;;;;;20.21;30.33;102056.75;4569952;26;20418;-73
2024/04/21 06:21:54;;;;;;;;;;;;;;;20.17;29.91;102050.69;4570426;25;20362;-72
2024/04/21 06:23:56;;;;;;;;;;;;;;;20.15;29.91;102055.25;4600000;25;19938;-72
2024/04/21 06:25:59;;;;;;;;;;;;;;;20.15;29.70;102047.25;4581896;25;20105;-73
2024/04/21 06:28:02;;;;;;;;;;;;;;;20.16;29.73;102056.09;4570392;25;19935;-72
2024/04/21 06:30:04;;;;;;;;;;;;;;;20.14;29.69;102050.84;4570182;25;19935;-72
2024/04/21 06:32:08;;;;;;;;;;;;;;;20.15;30.38;102057.94;4568328;26;19927;-73
2024/04/21 06:34:10;;;;;;;;;;;;;;;20.18;29.69;102056.91;4570507;25;19927;-72
2024/04/21 06:36:12;;;;;;;;;;;;;;;20.18;30.29;102054.22;4573266;25;19935;-73
2024/04/21 06:38:14;;;;;;;;;;;;;;;20.18;30.24;102060.41;4573292;26;19931;-72
2024/04/21 06:40:17;;;;;;;;;;;;;;;20.20;29.90;102063.03;4573409;25;19935;-72
2024/04/21 06:42:20;;;;;;;;;;;;;;;20.19;29.94;102066.63;4572669;26;20290;-72
2024/04/21 06:44:22;;;;;;;;;;;;;;;20.21;29.48;102067.41;4573601;25;19933;-72
2024/04/21 06:46:24;;;;;;;;;;;;;;;20.17;30.33;102071.19;4572969;25;20247;-72
2024/04/21 06:48:26;;;;;;;;;;;;;;;20.17;29.95;102061.38;4572976;26;19935;-72
2024/04/21 06:50:32;;;;;;;;;;;;;;;20.18;29.43;102067.56;4573003;26;19939;-73
2024/04/21 06:52:34;;;;;;;;;;;;;;;20.13;29.73;102069.66;4572826;25;19936;-70
2024/04/21 06:54:36;;;;;;;;;;;;;;;20.03;29.87;102059.44;4573320;26;19928;-72
2024/04/21 06:56:38;;;;;;;;;;;;;;;20.10;29.66;102060.00;4572934;25;20286;-72
2024/04/21 06:58:44;;;;;;;;;;;;;;;20.13;29.76;102066.97;4571510;26;19943;-72
2024/04/21 07:00:47;;;;;;;;;;;;;;;20.16;30.24;102066.78;4573201;25;20299;-72
2024/04/21 07:02:49;;;;;;;;;;;;;;;20.17;29.72;102063.19;4572690;26;19939;-72
2024/04/21 07:04:52;;;;;;;;;;;;;;;20.16;30.17;102064.13;4572561;26;19936;-72
2024/04/21 07:06:54;;;;;;;;;;;;;;;20.18;29.54;102063.09;4572769;26;19942;-72
2024/04/21 07:08:56;;;;;;;;;;;;;;;20.19;29.54;102063.97;4572947;25;19935;-71
2024/04/21 07:10:58;;;;;;;;;;;;;;;20.18;30.37;102063.09;4573012;25;19940;-70
2024/04/21 07:13:03;;;;;;;;;;;;;;;20.18;30.17;102060.41;4570841;26;20364;-72
2024/04/21 07:15:08;;;;;;;;;;;;;;;20.19;29.91;102066.63;4573079;25;19928;-72
2024/04/21 07:17:10;;;;;;;;;;;;;;;20.17;29.68;102066.72;4572703;26;20309;-73
2024/04/21 07:19:11;;;;;;;;;;;;;;;20.18;29.67;102064.91;4572615;25;19935;-72
2024/04/21 07:21:13;;;;;;;;;;;;;;;20.20;29.60;102063.03;4573076;26;19934;-72
2024/04/21 07:23:15;;;;;;;;;;;;;;;20.19;29.72;102066.63;4577229;25;19933;-72
2024/04/21 07:25:17;;;;;;;;;;;;;;;20.20;29.56;102066.53;4572982;25;20281;-73
2024/04/21 07:27:26;;;;;;;;;;;;;;;20.21;30.00;102073.63;4572682;26;20298;-72
2024/04/21 07:29:28;;;;;;;;;;;;;;;20.22;29.91;102066.44;4572906;25;19927;-72
2024/04/21 07:31:30;;;;;;;;;;;;;;;20.21;29.52;102065.59;4571118;26;19939;-72
2024/04/21 07:33:34;;;;;;;;;;;;;;;20.21;30.13;102065.59;4571887;25;19942;-72
2024/04/21 07:35:36;;;;;;;;;;;;;;;20.20;29.93;102063.03;4572822;26;20290;-73
2024/04/21 07:37:38;;;;;;;;;;;;;;;20.20;29.71;102069.22;4572628;26;19935;-73
2024/04/21 07:39:40;;;;;;;;;;;;;;;20.20;29.54;102068.38;4572521;26;20286;-72
2024/04/21 07:41:41;;;;;;;;;;;;;;;20.22;30.15;102063.78;4572788;25;19938;-72
2024/04/21 07:43:43;;;;;;;;;;;;;;;20.23;29.54;102062.84;4572317;26;19935;-72
2024/04/21 07:45:46;;;;;;;;;;;;;;;20.23;29.60;102054.81;4572772;25;19927;-71
2024/04/21 07:47:50;;;;;;;;;;;;;;;20.24;29.70;102057.44;4572189;25;20011;-72
2024/04/21 07:49:52;;;;;;;;;;;;;;;20.25;30.32;102059.13;4572564;25;20007;-73
2024/04/21 07:51:54;;;;;;;;;;;;;;;20.27;30.14;102053.72;4572653;25;20269;-72
2024/04/21 07:53:56;;;;;;;;;;;;;;;20.29;30.08;102051.81;4572342;25;19939;-72
2024/04/21 07:55:57;;;;;;;;;;;;;;;20.27;29.39;102059.91;4572860;25;19947;-72
2024/04/21 07:58:01;;;;;;;;;;;;;;;20.25;30.13;102056.47;4572445;26;19935;-73
2024/04/21 08:00:03;;;;;;;;;;;;;;;20.25;30.38;102052.94;4570416;26;19936;-72
2024/04/21 08:02:05;;;;;;;;;;;;;;;20.24;30.15;102061.91;4572010;25;19935;-72
2024/04/21 08:04:07;;;;;;;;;;;;;;;20.23;29.96;102055.69;4572080;25;20335;-72
2024/04/21 08:06:09;;;;;;;;;;;;;;;20.24;30.15;102045.88;4572381;26;19935;-73
2024/04/21 08:08:11;;;;;;;;;;;;;;;20.27;30.33;102051.06;4572394;26;19995;-73
2024/04/21 08:10:13;;;;;;;;;;;;;;;20.29;29.69;102054.47;4571088;25;19934;-72
2024/04/21 08:12:15;;;;;;;;;;;;;;;20.31;30.03;102049.91;4540053;26;19942;-73
2024/04/21 08:14:19;;;;;;;;;;;;;;;20.35;30.31;102053.28;4555926;26;19939;-73
2024/04/21 08:16:21;;;;;;;;;;;;;;;20.35;30.28;102047.94;4571766;25;20376;-72
2024/04/21 08:18:23;;;;;;;;;;;;;;;20.37;29.34;102054.91;4572241;26;20394;-73
2024/04/21 08:20:25;;;;;;;;;;;;;;;20.36;29.67;102055.03;4570264;26;19943;-72
2024/04/21 08:22:27;;;;;;;;;;;;;;;20.38;29.72;102051.31;4571998;26;19935;-73
2024/04/21 08:24:29;;;;;;;;;;;;;;;20.36;30.04;102053.19;4571902;25;19939;-72
2024/04/21 08:26:33;;;;;;;;;;;;;;;20.35;29.37;102055.97;4571942;25;19943;-72
2024/04/21 08:28:35;;;;;;;;;;;;;;;20.35;29.98;102051.50;4572490;25;19934;-73
2024/04/21 08:30:38;;;;;;;;;;;;;;;20.36;29.43;102049.66;4571425;25;20302;-73
2024/04/21 08:32:39;;;;;;;;;;;;;;;20.39;29.26;102052.16;4572095;25;19942;-73
2024/04/21 08:34:41;;;;;;;;;;;;;;;20.40;29.36;102054.75;4569982;26;20065;-72
2024/04/21 08:36:46;;;;;;;;;;;;;;;20.41;29.59;102044.94;4570201;26;19935;-72
2024/04/21 08:38:48;;;;;;;;;;;;;;;20.38;29.42;102040.63;4571986;25;19931;-73
2024/04/21 08:40:50;;;;;;;;;;;;;;;20.42;29.86;102046.66;4571741;26;19928;-72
2024/04/21 08:42:57;;;;;;;;;;;;;;;20.44;29.18;102044.78;4572024;26;20377;-73
2024/04/21 08:45:00;;;;;;;;;;;;;;;20.42;29.27;102052.00;4571430;25;19939;-72
2024/04/21 08:47:03;;;;;;;;;;;;;;;20.41;29.47;102051.16;4571770;25;20058;-72
2024/04/21 08:49:06;;;;;;;;;;;;;;;20.43;29.15;102056.41;4571928;25;20356;-72
2024/04/21 08:51:09;;;;;;;;;;;;;;;20.37;29.99;102056.75;4571575;25;20025;-72
2024/04/21 08:53:11;;;;;;;;;;;;;;;20.37;29.80;102054.06;4571792;26;19931;-73
2024/04/21 08:55:13;;;;;;;;;;;;;;;20.36;29.97;102050.53;4571711;25;19931;-72
2024/04/21 08:57:16;;;;;;;;;;;;;;;20.37;29.40;102049.56;4570707;25;19957;-71
2024/04/21 08:59:20;;;;;;;;;;;;;;;20.35;29.53;102048.81;4569614;26;19946;-73
2024/04/21 09:01:25;;;;;;;;;;;;;;;20.35;29.59;102046.16;4571421;25;19932;-72
2024/04/21 09:03:28;;;;;;;;;;;;;;;20.34;30.10;102044.44;4571704;26;20274;-72
2024/04/21 09:05:32;;;;;;;;;;;;;;;20.35;29.75;102056.84;4571393;25;19931;-73
2024/04/21 09:07:36;;;;;;;;;;;;;;;20.40;29.15;102052.09;4571497;25;19935;-73
2024/04/21 09:09:40;;;;;;;;;;;;;;;20.42;29.41;102043.97;4571463;25;19931;-73
2024/04/21 09:11:42;;;;;;;;;;;;;;;20.42;29.52;102033.28;4571288;25;19931;-73
2024/04/21 09:13:45;;;;;;;;;;;;;;;20.38;29.74;102037.94;4571188;25;19927;-73
2024/04/21 09:15:47;;;;;;;;;;;;;;;20.36;29.17;102041.66;4571068;25;19947;-73
2024/04/21 09:17:49;;;;;;;;;;;;;;;20.36;29.16;102053.19;4571381;25;20261;-73
2024/04/21 09:19:51;;;;;;;;;;;;;;;20.39;29.61;102037.00;4571605;26;19928;-72
2024/04/21 09:21:53;;;;;;;;;;;;;;;20.39;29.86;102038.78;4570813;25;20040;-72
2024/04/21 09:23:55;;;;;;;;;;;;;;;20.39;29.09;102045.03;4578976;25;20053;-72
2024/04/21 09:25:57;;;;;;;;;;;;;;;20.40;29.77;102030.72;4571017;25;19942;-73
2024/04/21 09:27:58;;;;;;;;;;;;;;;20.40;29.72;102028.03;4571103;25;19935;-72
2024/04/21 09:30:01;;;;;;;;;;;;;;;20.42;29.75;102034.16;4570838;26;19935;-72
2024/04/21 09:32:04;;;;;;;;;;;;;;;20.42;29.51;102031.47;4570619;25;19931;-73
2024/04/21 09:34:11;;;;;;;;;;;;;;;20.42;29.23;102031.47;4571243;25;19931;-73
2024/04/21 09:36:12;;;;;;;;;;;;;;;20.43;29.50;102025.19;4570935;25;19996;-73
2024/04/21 09:38:14;;;;;;;;;;;;;;;20.39;29.72;102028.09;4569170;26;19935;-72
2024/04/21 09:40:16;;;;;;;;;;;;;;;20.39;28.85;102022.75;4571277;25;19931;-72
2024/04/21 09:42:23;;;;;;;;;;;;;;;20.37;29.06;102012.16;4570717;25;19942;-73
2024/04/21 09:44:27;;;;;;;;;;;;;;;20.38;28.92;102013.91;4570368;25;19936;-72
2024/04/21 09:46:32;;;;;;;;;;;;;;;20.40;29.52;102019.16;4571012;25;19927;-73
2024/04/21 09:48:34;;;;;;;;;;;;;;;20.38;29.79;102018.41;4570809;26;20003;-71
2024/04/21 09:50:36;;;;;;;;;;;;;;;20.40;29.15;102016.47;4570927;26;19943;-73
2024/04/21 09:52:38;;;;;;;;;;;;;;;20.41;29.63;102019.09;4570619;25;19935;-73
2024/04/21 09:54:43;;;;;;;;;;;;;;;20.42;29.41;102017.25;4570856;26;20278;-71
2024/04/21 09:56:48;;;;;;;;;;;;;;;20.46;29.40;102010.78;4571148;25;19935;-73
2024/04/21 09:58:52;;;;;;;;;;;;;;;20.43;29.58;102022.50;4570062;25;19943;-73
2024/04/21 10:00:56;;;;;;;;;;;;;;;20.44;29.52;102012.69;4540492;26;19942;-72
2024/04/21 10:03:01;;;;;;;;;;;;;;;20.45;28.81;102013.56;4555223;26;19927;-72
2024/04/21 10:05:08;;;;;;;;;;;;;;;20.43;28.39;102006.47;4570840;26;20283;-72
2024/04/21 10:07:10;;;;;;;;;;;;;;;20.41;28.41;102010.19;4570717;26;20266;-72
2024/04/21 10:09:15;;;;;;;;;;;;;;;20.40;28.75;102006.66;4570815;25;19932;-71
2024/04/21 10:11:17;;;;;;;;;;;;;;;20.42;28.46;101990.53;4573910;25;19942;-72
2024/04/21 10:13:20;;;;;;;;;;;;;;;20.45;28.84;102002.84;4573147;26;19939;-71
2024/04/21 10:15:24;;;;;;;;;;;;;;;20.41;28.70;101994.16;4573553;25;19931;-72
2024/04/21 10:17:26;;;;;;;;;;;;;;;20.42;28.51;101990.53;4573782;25;19935;-73
2024/04/21 10:19:28;;;;;;;;;;;;;;;20.44;28.42;101977.97;4573421;26;19931;-70
2024/04/21 10:21:30;;;;;;;;;;;;;;;20.42;28.38;101990.53;4573784;26;20356;-72
2024/04/21 10:23:34;;;;;;;;;;;;;;;20.41;29.22;101989.69;4573261;25;19935;-73
2024/04/21 10:25:37;;;;;;;;;;;;;;;20.36;28.65;101985.53;4573649;26;19931;-71
2024/04/21 10:27:38;;;;;;;;;;;;;;;20.35;29.38;101986.50;4573143;26;19947;-71